createdAt,value
2018-08-13T00:01:32.797Z,26.30
2018-08-13T00:04:03.727Z,26.10
2018-08-13T00:06:34.144Z,26.10
2018-08-13T00:09:06.187Z,26.10
2018-08-13T00:11:36.698Z,26.20
2018-08-13T00:14:07.154Z,25.90
2018-08-13T00:16:37.608Z,26.10
2018-08-13T00:19:08.160Z,26.00
2018-08-13T00:21:38.548Z,26.00
2018-08-13T00:24:09.328Z,25.80
2018-08-13T00:26:39.884Z,25.60
2018-08-13T00:29:10.404Z,25.40
2018-08-13T00:31:40.930Z,25.40
2018-08-13T00:34:11.703Z,25.60
2018-08-13T00:36:42.120Z,25.60
2018-08-13T00:39:14.261Z,25.70
2018-08-13T00:41:44.767Z,25.80
2018-08-13T00:44:15.220Z,26.00
2018-08-13T00:46:45.955Z,26.00
2018-08-13T00:49:16.296Z,26.00
2018-08-13T00:51:46.985Z,25.80
2018-08-13T00:54:17.542Z,25.70
2018-08-13T00:56:48.346Z,25.80
2018-08-13T00:59:19.451Z,25.80
2018-08-13T01:01:50.097Z,26.00
2018-08-13T01:04:20.661Z,25.70
2018-08-13T01:06:51.337Z,25.60
2018-08-13T01:09:21.788Z,25.40
2018-08-13T01:11:52.031Z,25.20
2018-08-13T01:14:22.427Z,25.20
2018-08-13T01:16:53.009Z,25.30
2018-08-13T01:19:25.310Z,25.50
2018-08-13T01:21:57.458Z,25.50
2018-08-13T01:24:28.282Z,25.40
2018-08-13T01:27:00.705Z,25.30
2018-08-13T01:29:32.852Z,25.50
2018-08-13T01:32:05.067Z,25.80
2018-08-13T01:34:37.101Z,25.90
2018-08-13T01:37:07.627Z,25.90
2018-08-13T01:39:38.049Z,26.00
2018-08-13T01:42:10.257Z,26.00
2018-08-13T01:44:40.703Z,26.10
2018-08-13T01:47:12.766Z,26.10
2018-08-13T01:49:43.022Z,26.10
2018-08-13T01:52:14.682Z,26.10
2018-08-13T01:54:45.208Z,26.10
2018-08-13T01:57:17.596Z,26.00
2018-08-13T01:59:48.169Z,26.00
2018-08-13T02:02:18.576Z,25.80
2018-08-13T02:04:49.321Z,25.80
2018-08-13T02:07:19.909Z,25.70
2018-08-13T02:09:50.316Z,25.70
2018-08-13T02:12:22.004Z,25.50
2018-08-13T02:14:52.366Z,25.70
2018-08-13T02:17:22.787Z,25.60
2018-08-13T02:19:53.392Z,25.50
2018-08-13T02:22:25.525Z,25.30
2018-08-13T02:24:56.068Z,25.40
2018-08-13T02:27:26.523Z,25.10
2018-08-13T02:29:57.026Z,25.20
2018-08-13T02:32:27.745Z,25.10
2018-08-13T02:34:59.836Z,25.10
2018-08-13T02:37:32.184Z,25.10
2018-08-13T02:40:04.569Z,24.90
2018-08-13T02:42:36.668Z,24.80
2018-08-13T02:45:11.019Z,24.70
2018-08-13T02:47:43.612Z,24.60
2018-08-13T02:50:16.549Z,24.70
2018-08-13T02:52:50.419Z,24.70
2018-08-13T02:55:22.714Z,24.80
2018-08-13T02:57:54.933Z,24.70
2018-08-13T03:00:27.352Z,24.70
2018-08-13T03:02:59.420Z,24.70
2018-08-13T03:05:31.896Z,24.60
2018-08-13T03:08:04.255Z,24.60
2018-08-13T03:10:36.776Z,24.60
2018-08-13T03:13:09.137Z,24.60
2018-08-13T03:15:41.286Z,24.40
2018-08-13T03:18:13.947Z,24.40
2018-08-13T03:20:46.133Z,24.40
2018-08-13T03:23:18.180Z,24.40
2018-08-13T03:25:50.641Z,24.40
2018-08-13T03:28:22.946Z,24.30
2018-08-13T03:30:55.528Z,23.90
2018-08-13T03:33:28.254Z,23.70
2018-08-13T03:36:00.608Z,23.50
2018-08-13T03:38:32.869Z,23.30
2018-08-13T03:41:05.053Z,23.50
2018-08-13T03:43:37.187Z,23.40
2018-08-13T03:46:09.342Z,23.60
2018-08-13T03:48:41.477Z,23.60
2018-08-13T03:51:13.741Z,23.80
2018-08-13T03:53:45.954Z,24.00
2018-08-13T03:56:18.374Z,23.80
2018-08-13T03:58:50.670Z,24.00
2018-08-13T04:01:23.038Z,24.00
2018-08-13T04:03:55.959Z,23.80
2018-08-13T04:06:28.490Z,23.80
2018-08-13T04:09:00.729Z,23.80
2018-08-13T04:11:32.938Z,23.60
2018-08-13T04:14:05.124Z,23.60
2018-08-13T04:16:37.498Z,23.60
2018-08-13T04:19:10.707Z,23.50
2018-08-13T04:21:42.707Z,23.50
2018-08-13T04:24:14.819Z,23.60
2018-08-13T04:26:47.177Z,23.60
2018-08-13T04:29:19.470Z,23.70
2018-08-13T04:31:52.020Z,23.70
2018-08-13T04:34:24.332Z,23.70
2018-08-13T04:36:56.465Z,23.40
2018-08-13T04:39:28.378Z,23.30
2018-08-13T04:42:00.802Z,23.20
2018-08-13T04:44:33.036Z,23.10
2018-08-13T04:47:05.443Z,23.20
2018-08-13T04:49:37.548Z,23.30
2018-08-13T04:52:09.891Z,23.20
2018-08-13T04:54:41.768Z,23.40
2018-08-13T04:57:14.015Z,23.30
2018-08-13T04:59:46.026Z,23.10
2018-08-13T05:02:17.932Z,23.10
2018-08-13T05:04:50.157Z,23.20
2018-08-13T05:07:22.750Z,23.20
2018-08-13T05:09:55.086Z,23.00
2018-08-13T05:12:27.346Z,23.10
2018-08-13T05:14:59.666Z,23.00
2018-08-13T05:17:31.540Z,23.00
2018-08-13T05:20:03.769Z,23.00
2018-08-13T05:22:36.083Z,23.00
2018-08-13T05:25:10.216Z,23.10
2018-08-13T05:27:43.208Z,23.10
2018-08-13T05:30:15.670Z,22.80
2018-08-13T05:32:47.952Z,22.70
2018-08-13T05:35:20.089Z,22.60
2018-08-13T05:37:52.482Z,22.70
2018-08-13T05:40:24.666Z,22.80
2018-08-13T05:42:57.002Z,22.90
2018-08-13T05:45:29.262Z,22.90
2018-08-13T05:48:03.324Z,22.80
2018-08-13T05:50:35.751Z,22.70
2018-08-13T05:53:08.305Z,22.70
2018-08-13T05:55:40.464Z,22.80
2018-08-13T05:58:12.856Z,23.00
2018-08-13T06:00:44.907Z,23.10
2018-08-13T06:05:52.977Z,23.10
2018-08-13T06:08:24.966Z,23.10
2018-08-13T06:10:57.004Z,23.20
2018-08-13T06:13:28.988Z,23.20
2018-08-13T06:16:01.266Z,23.10
2018-08-13T06:18:33.474Z,23.20
2018-08-13T06:21:05.653Z,23.30
2018-08-13T06:23:37.900Z,23.20
2018-08-13T06:26:10.545Z,23.10
2018-08-13T06:28:42.777Z,23.20
2018-08-13T06:31:15.180Z,23.00
2018-08-13T06:33:47.318Z,23.00
2018-08-13T06:36:20.393Z,23.00
2018-08-13T06:38:52.482Z,22.80
2018-08-13T06:41:24.636Z,22.90
2018-08-13T06:43:56.994Z,23.00
2018-08-13T06:46:29.008Z,22.70
2018-08-13T06:49:01.278Z,22.60
2018-08-13T06:51:34.047Z,22.40
2018-08-13T06:54:06.600Z,22.40
2018-08-13T06:56:39.119Z,22.30
2018-08-13T06:59:11.428Z,22.30
2018-08-13T07:01:43.624Z,22.40
2018-08-13T07:04:15.863Z,22.50
2018-08-13T07:06:48.906Z,22.50
2018-08-13T07:09:21.024Z,22.60
2018-08-13T07:11:53.224Z,22.40
2018-08-13T07:14:25.183Z,22.50
2018-08-13T07:16:57.423Z,22.10
2018-08-13T07:19:29.836Z,21.90
2018-08-13T07:22:02.207Z,21.80
2018-08-13T07:24:34.520Z,21.90
2018-08-13T07:27:06.781Z,22.00
2018-08-13T07:29:38.934Z,21.90
2018-08-13T07:32:11.233Z,22.00
2018-08-13T07:34:43.372Z,22.10
2018-08-13T07:37:15.831Z,22.20
2018-08-13T07:39:47.831Z,22.20
2018-08-13T07:42:20.139Z,21.90
2018-08-13T07:44:52.735Z,21.50
2018-08-13T07:47:24.721Z,21.50
2018-08-13T07:49:57.342Z,21.50
2018-08-13T07:52:29.686Z,21.70
2018-08-13T07:55:01.888Z,21.70
2018-08-13T07:57:34.063Z,21.70
2018-08-13T08:00:06.533Z,21.90
2018-08-13T08:02:38.763Z,22.10
2018-08-13T08:05:15.522Z,22.30
2018-08-13T08:07:48.328Z,22.50
2018-08-13T08:10:20.649Z,22.50
2018-08-13T08:12:53.048Z,22.50
2018-08-13T08:15:25.420Z,22.50
2018-08-13T08:17:57.722Z,22.50
2018-08-13T08:20:29.944Z,22.50
2018-08-13T08:23:02.269Z,22.30
2018-08-13T08:25:34.431Z,22.20
2018-08-13T08:28:06.431Z,22.20
2018-08-13T08:30:38.862Z,22.20
2018-08-13T08:33:11.401Z,22.10
2018-08-13T08:35:43.664Z,22.00
2018-08-13T08:38:15.736Z,22.20
2018-08-13T08:40:48.965Z,22.20
2018-08-13T08:43:21.290Z,22.20
2018-08-13T08:45:55.252Z,22.20
2018-08-13T08:48:27.756Z,22.30
2018-08-13T08:51:00.272Z,22.30
2018-08-13T08:53:32.535Z,22.40
2018-08-13T08:56:04.874Z,22.40
2018-08-13T08:58:37.105Z,22.20
2018-08-13T09:01:09.647Z,22.10
2018-08-13T09:03:41.564Z,22.00
2018-08-13T09:06:15.495Z,22.00
2018-08-13T09:08:48.306Z,22.00
2018-08-13T09:11:20.934Z,21.90
2018-08-13T09:13:53.174Z,21.70
2018-08-13T09:16:25.459Z,21.60
2018-08-13T09:19:06.766Z,21.60
2018-08-13T09:21:39.758Z,21.50
2018-08-13T09:24:21.321Z,21.40
2018-08-13T09:27:06.551Z,21.00
2018-08-13T09:29:47.995Z,21.20
2018-08-13T09:32:35.419Z,21.20
2018-08-13T09:35:40.656Z,21.30
2018-08-13T09:38:13.128Z,21.10
2018-08-13T09:40:45.428Z,21.20
2018-08-13T09:43:17.533Z,21.10
2018-08-13T09:45:49.727Z,21.10
2018-08-13T09:48:23.012Z,21.10
2018-08-13T09:50:55.604Z,21.00
2018-08-13T09:53:28.173Z,21.10
2018-08-13T09:56:00.271Z,21.00
2018-08-13T09:58:32.535Z,21.10
2018-08-13T10:01:10.405Z,21.00
2018-08-13T10:03:42.780Z,21.10
2018-08-13T10:06:14.919Z,20.90
2018-08-13T10:08:51.223Z,21.00
2018-08-13T10:11:23.535Z,21.20
2018-08-13T10:13:55.531Z,21.20
2018-08-13T10:16:27.785Z,21.20
2018-08-13T10:18:59.956Z,21.30
2018-08-13T10:21:32.150Z,20.90
2018-08-13T10:24:04.186Z,20.70
2018-08-13T10:26:36.530Z,20.60
2018-08-13T10:29:10.158Z,20.50
2018-08-13T10:31:42.252Z,20.40
2018-08-13T10:34:14.413Z,20.40
2018-08-13T10:36:46.653Z,20.40
2018-08-13T10:39:19.127Z,20.50
2018-08-13T10:41:51.273Z,20.70
2018-08-13T10:44:23.262Z,20.80
2018-08-13T10:46:55.810Z,21.00
2018-08-13T10:49:29.796Z,21.10
2018-08-13T10:52:02.041Z,21.10
2018-08-13T10:54:34.159Z,21.00
2018-08-13T10:57:06.503Z,21.00
2018-08-13T10:59:38.630Z,21.10
2018-08-13T11:02:10.948Z,21.10
2018-08-13T11:04:42.884Z,21.10
2018-08-13T11:07:15.013Z,21.20
2018-08-13T11:09:47.357Z,21.20
2018-08-13T11:12:19.955Z,20.90
2018-08-13T11:14:52.203Z,20.70
2018-08-13T11:17:24.602Z,20.60
2018-08-13T11:19:56.778Z,20.70
2018-08-13T11:22:28.891Z,20.80
2018-08-13T11:25:01.117Z,21.10
2018-08-13T11:27:33.521Z,21.10
2018-08-13T11:30:06.195Z,21.20
2018-08-13T11:32:38.630Z,21.20
2018-08-13T11:35:11.233Z,21.10
2018-08-13T11:37:43.351Z,21.00
2018-08-13T11:40:17.079Z,20.90
2018-08-13T11:42:49.292Z,20.90
2018-08-13T11:45:21.373Z,20.90
2018-08-13T11:47:53.470Z,20.80
2018-08-13T11:50:25.867Z,20.70
2018-08-13T11:52:58.277Z,20.70
2018-08-13T11:55:30.767Z,20.70
2018-08-13T11:58:03.014Z,20.60
2018-08-13T12:00:34.955Z,20.60
2018-08-13T12:03:07.950Z,20.60
2018-08-13T12:05:40.305Z,20.70
2018-08-13T12:08:12.633Z,20.60
2018-08-13T12:10:46.627Z,20.60
2018-08-13T12:13:18.784Z,20.70
2018-08-13T12:15:51.173Z,20.80
2018-08-13T12:18:23.650Z,20.80
2018-08-13T12:20:56.073Z,20.70
2018-08-13T12:23:28.333Z,20.70
2018-08-13T12:26:00.371Z,20.60
2018-08-13T12:28:32.968Z,20.60
2018-08-13T12:31:06.571Z,20.80
2018-08-13T12:33:38.990Z,20.90
2018-08-13T12:36:11.389Z,20.80
2018-08-13T12:38:43.570Z,20.80
2018-08-13T12:41:15.736Z,20.50
2018-08-13T12:43:48.053Z,20.70
2018-08-13T12:46:20.382Z,20.80
2018-08-13T12:48:52.558Z,20.80
2018-08-13T12:51:24.848Z,20.80
2018-08-13T12:53:57.197Z,20.70
2018-08-13T12:56:29.439Z,20.70
2018-08-13T12:59:01.713Z,20.80
2018-08-13T13:01:33.930Z,21.00
2018-08-13T13:04:06.946Z,21.00
2018-08-13T13:06:39.122Z,21.00
2018-08-13T13:09:14.069Z,21.20
2018-08-13T13:11:46.612Z,21.50
2018-08-13T13:14:18.846Z,22.00
2018-08-13T13:16:51.129Z,22.00
2018-08-13T13:19:23.368Z,22.20
2018-08-13T13:21:55.467Z,22.40
2018-08-13T13:24:27.762Z,22.50
2018-08-13T13:26:59.949Z,22.40
2018-08-13T13:29:32.795Z,22.40
2018-08-13T13:32:05.393Z,22.40
2018-08-13T13:34:37.863Z,22.10
2018-08-13T13:37:10.228Z,22.00
2018-08-13T13:39:42.406Z,21.90
2018-08-13T13:42:14.610Z,21.90
2018-08-13T13:44:48.417Z,21.90
2018-08-13T13:47:20.986Z,22.10
2018-08-13T13:49:53.519Z,22.30
2018-08-13T13:52:25.895Z,22.50
2018-08-13T13:54:59.155Z,22.70
2018-08-13T13:57:31.744Z,22.80
2018-08-13T14:00:03.826Z,22.90
2018-08-13T14:02:37.443Z,23.10
2018-08-13T14:05:10.330Z,22.90
2018-08-13T14:07:43.220Z,23.00
2018-08-13T14:10:17.452Z,22.90
2018-08-13T14:12:50.112Z,23.00
2018-08-13T14:15:26.127Z,23.10
2018-08-13T14:17:58.409Z,23.20
2018-08-13T14:20:31.866Z,23.20
2018-08-13T14:23:04.276Z,23.00
2018-08-13T14:25:36.558Z,22.90
2018-08-13T14:28:09.954Z,23.10
2018-08-13T14:30:42.664Z,23.20
2018-08-13T14:33:15.355Z,23.50
2018-08-13T14:35:48.531Z,23.80
2018-08-13T14:38:20.876Z,24.00
2018-08-13T14:40:53.636Z,23.80
2018-08-13T14:43:27.649Z,24.10
2018-08-13T14:45:59.871Z,24.50
2018-08-13T14:48:32.838Z,25.00
2018-08-13T14:51:06.083Z,25.30
2018-08-13T14:53:41.956Z,25.90
2018-08-13T14:56:14.651Z,26.40
2018-08-13T14:58:46.821Z,26.80
2018-08-13T15:01:19.188Z,26.80
2018-08-13T15:03:51.391Z,26.60
2018-08-13T15:06:25.102Z,27.20
2018-08-13T15:08:57.972Z,27.10
2018-08-13T15:11:35.382Z,27.10
2018-08-13T15:14:11.873Z,27.00
2018-08-13T15:16:45.913Z,27.10
2018-08-13T15:19:20.066Z,26.90
2018-08-13T15:21:53.523Z,26.60
2018-08-13T15:24:32.865Z,26.60
2018-08-13T15:27:05.475Z,26.90
2018-08-13T15:29:39.247Z,27.10
2018-08-13T15:32:11.556Z,26.50
2018-08-13T15:34:45.360Z,26.60
2018-08-13T15:37:19.102Z,26.90
2018-08-13T15:39:53.646Z,27.50
2018-08-13T15:42:29.332Z,27.50
2018-08-13T15:45:01.828Z,27.50
2018-08-13T15:47:48.334Z,27.30
2018-08-13T15:50:26.182Z,27.40
2018-08-13T15:52:59.511Z,27.40
2018-08-13T15:55:33.092Z,27.60
2018-08-13T15:58:06.729Z,27.80
2018-08-13T16:00:39.768Z,28.30
2018-08-13T16:03:12.717Z,28.10
2018-08-13T16:05:46.117Z,28.00
2018-08-13T16:08:20.597Z,27.40
2018-08-13T16:10:54.591Z,27.30
2018-08-13T16:13:29.762Z,27.20
2018-08-13T16:16:02.271Z,27.10
2018-08-13T16:18:39.270Z,26.80
2018-08-13T16:21:16.205Z,26.90
2018-08-13T16:23:49.489Z,26.80
2018-08-13T16:26:23.596Z,26.80
2018-08-13T16:28:58.380Z,26.70
2018-08-13T16:31:32.142Z,27.30
2018-08-13T16:34:08.456Z,28.10
2018-08-13T16:36:55.033Z,27.90
2018-08-13T16:39:38.837Z,28.20
2018-08-13T16:42:11.573Z,29.10
2018-08-13T16:44:47.844Z,29.70
2018-08-13T16:50:18.922Z,29.40
2018-08-13T16:52:53.374Z,29.60
2018-08-13T16:55:28.797Z,29.70
2018-08-13T16:58:05.567Z,30.20
2018-08-13T17:00:48.480Z,29.90
2018-08-13T17:03:27.157Z,29.70
2018-08-13T17:06:01.779Z,29.70
2018-08-13T17:08:34.701Z,29.80
2018-08-13T17:11:08.229Z,29.30
2018-08-13T17:13:42.438Z,29.00
2018-08-13T17:16:16.585Z,28.80
2018-08-13T17:18:55.811Z,29.00
2018-08-13T17:21:29.557Z,29.10
2018-08-13T17:24:03.898Z,29.00
2018-08-13T17:26:37.509Z,29.00
2018-08-13T17:29:10.971Z,29.10
2018-08-13T17:31:45.331Z,29.40
2018-08-13T17:34:19.864Z,29.40
2018-08-13T17:36:53.283Z,30.10
2018-08-13T17:39:26.865Z,30.00
2018-08-13T17:42:03.396Z,29.90
2018-08-13T17:44:37.483Z,29.50
2018-08-13T17:47:15.674Z,29.10
2018-08-13T17:49:52.560Z,29.00
2018-08-13T17:52:27.181Z,28.80
2018-08-13T17:55:05.387Z,28.90
2018-08-13T17:57:48.723Z,28.80
2018-08-13T18:00:31.796Z,28.80
2018-08-13T18:03:11.701Z,28.60
2018-08-13T18:05:50.567Z,28.50
2018-08-13T18:08:24.080Z,28.30
2018-08-13T18:11:03.000Z,28.30
2018-08-13T18:16:52.282Z,28.00
2018-08-13T18:19:25.422Z,28.00
2018-08-13T18:21:57.728Z,27.80
2018-08-13T18:24:31.204Z,27.70
2018-08-13T18:27:19.961Z,27.80
2018-08-13T18:29:52.487Z,28.00
2018-08-13T18:32:25.363Z,28.20
2018-08-13T18:34:59.798Z,28.30
2018-08-13T18:37:36.831Z,28.50
2018-08-13T18:40:14.926Z,28.60
2018-08-13T18:42:51.522Z,28.50
2018-08-13T18:45:27.643Z,28.30
2018-08-13T18:48:02.347Z,28.30
2018-08-13T18:50:35.394Z,28.30
2018-08-13T18:53:09.507Z,27.90
2018-08-13T18:55:43.715Z,27.80
2018-08-13T18:58:18.394Z,27.70
2018-08-13T19:00:56.737Z,27.40
2018-08-13T19:04:23.252Z,27.20
2018-08-13T19:06:56.804Z,27.10
2018-08-13T19:09:29.158Z,27.20
2018-08-13T19:12:02.251Z,27.20
2018-08-13T19:14:34.761Z,27.10
2018-08-13T19:17:07.533Z,27.40
2018-08-13T19:19:45.346Z,27.10
2018-08-13T19:22:17.834Z,27.30
2018-08-13T19:24:52.887Z,28.00
2018-08-13T19:27:31.338Z,28.10
2018-08-13T19:30:04.543Z,27.70
2018-08-13T19:32:38.891Z,27.70
2018-08-13T19:35:13.757Z,27.70
2018-08-13T19:37:48.793Z,27.30
2018-08-13T19:40:25.878Z,27.20
2018-08-13T19:43:00.518Z,26.90
2018-08-13T19:45:41.348Z,26.50
2018-08-13T19:48:17.413Z,26.30
2018-08-13T19:50:52.739Z,26.30
2018-08-13T19:53:26.730Z,26.20
2018-08-13T19:56:08.065Z,26.10
2018-08-13T19:58:44.262Z,26.10
2018-08-13T20:01:20.740Z,26.30
2018-08-13T20:04:09.679Z,26.20
2018-08-13T20:06:53.301Z,26.20
2018-08-13T20:09:26.816Z,26.30
2018-08-13T20:14:55.812Z,26.70
2018-08-13T20:17:32.072Z,27.40
2018-08-13T20:20:16.159Z,28.00
2018-08-13T20:22:51.762Z,28.50
2018-08-13T20:25:38.268Z,29.00
2018-08-13T20:28:22.505Z,29.40
2018-08-13T20:30:58.162Z,29.40
2018-08-13T20:33:44.932Z,29.30
2018-08-13T20:36:24.493Z,29.40
2018-08-13T20:39:06.304Z,29.80
2018-08-13T20:41:41.822Z,30.30
2018-08-13T20:44:20.375Z,30.70
2018-08-13T20:47:06.030Z,30.40
2018-08-13T20:49:50.782Z,30.00
2018-08-13T20:52:37.396Z,29.60
2018-08-13T20:55:20.851Z,29.00
2018-08-13T20:58:01.688Z,28.70
2018-08-13T21:03:44.512Z,29.00
2018-08-13T21:06:26.102Z,27.90
2018-08-13T21:09:01.522Z,26.80
2018-08-13T21:11:36.753Z,25.80
2018-08-13T21:14:22.688Z,24.90
2018-08-13T21:17:09.226Z,24.00
2018-08-13T21:19:56.366Z,23.30
2018-08-13T21:22:44.079Z,23.00
2018-08-13T21:25:32.167Z,22.60
2018-08-13T21:28:17.972Z,22.40
2018-08-13T21:31:04.307Z,22.10
2018-08-13T21:33:50.181Z,22.00
2018-08-13T21:36:39.954Z,22.50
2018-08-13T21:39:25.869Z,22.80
2018-08-13T21:42:12.836Z,23.00
2018-08-13T21:45:02.963Z,22.90
2018-08-13T21:47:52.754Z,22.90
2018-08-13T21:50:38.732Z,23.00
2018-08-13T21:53:27.519Z,23.10
2018-08-13T21:56:13.601Z,23.20
2018-08-13T21:58:59.808Z,23.30
2018-08-13T22:01:46.327Z,23.40
2018-08-13T22:04:37.316Z,23.40
2018-08-13T22:07:23.865Z,23.60
2018-08-13T22:13:15.348Z,23.50
2018-08-13T22:16:01.362Z,23.60
2018-08-13T22:18:48.226Z,23.60
2018-08-13T22:21:34.398Z,23.50
2018-08-13T22:24:20.395Z,23.60
2018-08-13T22:27:06.801Z,23.70
2018-08-13T22:29:52.644Z,23.80
2018-08-13T22:32:38.779Z,24.00
2018-08-13T22:35:24.853Z,24.30
2018-08-13T22:38:15.034Z,24.40
2018-08-13T22:41:01.209Z,24.70
2018-08-13T22:43:48.539Z,24.90
2018-08-13T22:46:35.259Z,24.90
2018-08-13T22:49:22.162Z,24.80
2018-08-13T22:52:08.252Z,24.80
2018-08-13T22:54:55.509Z,24.50
2018-08-13T22:57:41.619Z,24.40
2018-08-13T23:00:27.576Z,24.30
2018-08-13T23:03:13.690Z,24.30
2018-08-13T23:05:59.605Z,24.20
2018-08-13T23:08:46.030Z,24.00
2018-08-13T23:11:33.201Z,23.60
2018-08-13T23:14:12.726Z,23.20
2018-08-13T23:16:46.623Z,22.90
2018-08-13T23:19:19.124Z,22.80
2018-08-13T23:21:52.770Z,22.70
2018-08-13T23:24:26.403Z,22.70
2018-08-13T23:27:00.352Z,22.80
2018-08-13T23:29:32.918Z,22.80
2018-08-13T23:32:07.488Z,22.70
2018-08-13T23:34:39.832Z,22.90
2018-08-13T23:37:11.924Z,22.90
2018-08-13T23:39:45.140Z,22.80
2018-08-13T23:42:18.762Z,22.60
2018-08-13T23:44:51.105Z,22.60
2018-08-13T23:47:23.307Z,22.50
2018-08-13T23:49:58.972Z,22.40
2018-08-13T23:52:32.267Z,22.40
2018-08-13T23:55:04.893Z,22.40
2018-08-13T23:57:38.705Z,22.30
